sensor_id;sensor_type;location;lat;lon;timestamp;temperature;humidity
12223;DHT22;6174;49.058;8.524;2022-08-21T00:01:28;19.10;78.80
12223;DHT22;6174;49.058;8.524;2022-08-21T00:03:56;19.10;78.90
12223;DHT22;6174;49.058;8.524;2022-08-21T00:06:23;19.00;79.20
12223;DHT22;6174;49.058;8.524;2022-08-21T00:08:50;19.00;79.30
12223;DHT22;6174;49.058;8.524;2022-08-21T00:11:17;19.00;80.20
12223;DHT22;6174;49.058;8.524;2022-08-21T00:13:44;18.90;80.10
12223;DHT22;6174;49.058;8.524;2022-08-21T00:16:11;18.90;80.10
12223;DHT22;6174;49.058;8.524;2022-08-21T00:18:39;18.80;80.50
12223;DHT22;6174;49.058;8.524;2022-08-21T00:21:06;18.80;81.10
12223;DHT22;6174;49.058;8.524;2022-08-21T00:23:33;18.60;81.80
12223;DHT22;6174;49.058;8.524;2022-08-21T00:26:00;18.60;82.40
12223;DHT22;6174;49.058;8.524;2022-08-21T00:28:27;18.60;82.40
12223;DHT22;6174;49.058;8.524;2022-08-21T00:30:54;18.60;82.60
12223;DHT22;6174;49.058;8.524;2022-08-21T00:33:22;18.60;82.80
12223;DHT22;6174;49.058;8.524;2022-08-21T00:35:50;18.60;83.40
12223;DHT22;6174;49.058;8.524;2022-08-21T00:38:18;18.50;83.60
12223;DHT22;6174;49.058;8.524;2022-08-21T00:40:48;18.50;83.40
12223;DHT22;6174;49.058;8.524;2022-08-21T00:43:17;18.50;83.40
12223;DHT22;6174;49.058;8.524;2022-08-21T00:45:45;18.50;83.70
12223;DHT22;6174;49.058;8.524;2022-08-21T00:48:12;18.50;84.70
12223;DHT22;6174;49.058;8.524;2022-08-21T00:50:43;18.50;84.20
12223;DHT22;6174;49.058;8.524;2022-08-21T00:53:13;18.50;84.70
12223;DHT22;6174;49.058;8.524;2022-08-21T00:55:41;18.40;85.10
12223;DHT22;6174;49.058;8.524;2022-08-21T00:58:09;18.30;85.30
12223;DHT22;6174;49.058;8.524;2022-08-21T01:00:41;18.30;85.30
12223;DHT22;6174;49.058;8.524;2022-08-21T01:03:11;18.30;85.20
12223;DHT22;6174;49.058;8.524;2022-08-21T01:05:39;18.30;85.10
12223;DHT22;6174;49.058;8.524;2022-08-21T01:08:07;18.30;85.20
12223;DHT22;6174;49.058;8.524;2022-08-21T01:10:36;18.20;85.60
12223;DHT22;6174;49.058;8.524;2022-08-21T01:13:04;18.20;86.00
12223;DHT22;6174;49.058;8.524;2022-08-21T01:15:34;18.10;86.60
12223;DHT22;6174;49.058;8.524;2022-08-21T01:18:02;18.00;86.90
12223;DHT22;6174;49.058;8.524;2022-08-21T01:20:29;17.90;87.00
12223;DHT22;6174;49.058;8.524;2022-08-21T01:22:57;17.90;87.40
12223;DHT22;6174;49.058;8.524;2022-08-21T01:25:24;17.80;87.60
12223;DHT22;6174;49.058;8.524;2022-08-21T01:27:51;17.80;88.00
12223;DHT22;6174;49.058;8.524;2022-08-21T01:30:21;17.80;88.70
12223;DHT22;6174;49.058;8.524;2022-08-21T01:32:48;17.70;89.00
12223;DHT22;6174;49.058;8.524;2022-08-21T01:35:18;17.70;89.10
12223;DHT22;6174;49.058;8.524;2022-08-21T01:37:45;17.80;89.40
12223;DHT22;6174;49.058;8.524;2022-08-21T01:40:15;17.70;89.80
12223;DHT22;6174;49.058;8.524;2022-08-21T01:42:44;17.70;90.20
12223;DHT22;6174;49.058;8.524;2022-08-21T01:45:12;17.70;90.10
12223;DHT22;6174;49.058;8.524;2022-08-21T01:47:39;17.70;90.30
12223;DHT22;6174;49.058;8.524;2022-08-21T01:50:11;17.60;90.20
12223;DHT22;6174;49.058;8.524;2022-08-21T01:52:38;17.60;90.00
12223;DHT22;6174;49.058;8.524;2022-08-21T01:55:07;17.60;90.20
12223;DHT22;6174;49.058;8.524;2022-08-21T01:57:35;17.70;90.20
12223;DHT22;6174;49.058;8.524;2022-08-21T02:00:04;17.60;90.20
12223;DHT22;6174;49.058;8.524;2022-08-21T02:02:31;17.60;90.10
12223;DHT22;6174;49.058;8.524;2022-08-21T02:04:58;17.60;89.90
12223;DHT22;6174;49.058;8.524;2022-08-21T02:07:24;17.70;89.80
12223;DHT22;6174;49.058;8.524;2022-08-21T02:09:51;17.60;90.10
12223;DHT22;6174;49.058;8.524;2022-08-21T02:12:18;17.70;90.30
12223;DHT22;6174;49.058;8.524;2022-08-21T02:14:46;17.60;90.20
12223;DHT22;6174;49.058;8.524;2022-08-21T02:17:13;17.60;90.40
12223;DHT22;6174;49.058;8.524;2022-08-21T02:19:39;17.60;90.30
12223;DHT22;6174;49.058;8.524;2022-08-21T02:22:07;17.60;90.30
12223;DHT22;6174;49.058;8.524;2022-08-21T02:24:34;17.60;90.60
12223;DHT22;6174;49.058;8.524;2022-08-21T02:27:01;17.50;90.60
12223;DHT22;6174;49.058;8.524;2022-08-21T02:29:28;17.50;90.50
12223;DHT22;6174;49.058;8.524;2022-08-21T02:31:56;17.50;90.70
12223;DHT22;6174;49.058;8.524;2022-08-21T02:34:23;17.40;90.80
12223;DHT22;6174;49.058;8.524;2022-08-21T02:36:50;17.40;90.80
12223;DHT22;6174;49.058;8.524;2022-08-21T02:39:17;17.40;90.80
12223;DHT22;6174;49.058;8.524;2022-08-21T02:41:44;17.40;91.00
12223;DHT22;6174;49.058;8.524;2022-08-21T02:44:11;17.30;91.00
12223;DHT22;6174;49.058;8.524;2022-08-21T02:46:37;17.30;90.90
12223;DHT22;6174;49.058;8.524;2022-08-21T02:49:05;17.30;90.90
12223;DHT22;6174;49.058;8.524;2022-08-21T02:51:32;17.20;90.80
12223;DHT22;6174;49.058;8.524;2022-08-21T02:53:59;17.30;91.10
12223;DHT22;6174;49.058;8.524;2022-08-21T02:56:26;17.30;91.20
12223;DHT22;6174;49.058;8.524;2022-08-21T02:58:52;17.30;91.10
12223;DHT22;6174;49.058;8.524;2022-08-21T03:01:19;17.20;91.30
12223;DHT22;6174;49.058;8.524;2022-08-21T03:03:47;17.20;91.30
12223;DHT22;6174;49.058;8.524;2022-08-21T03:06:19;17.10;91.40
12223;DHT22;6174;49.058;8.524;2022-08-21T03:08:47;17.10;91.90
12223;DHT22;6174;49.058;8.524;2022-08-21T03:11:15;17.10;92.10
12223;DHT22;6174;49.058;8.524;2022-08-21T03:13:42;17.00;92.30
12223;DHT22;6174;49.058;8.524;2022-08-21T03:16:09;17.00;92.40
12223;DHT22;6174;49.058;8.524;2022-08-21T03:18:36;17.00;92.40
12223;DHT22;6174;49.058;8.524;2022-08-21T03:21:04;17.10;92.30
12223;DHT22;6174;49.058;8.524;2022-08-21T03:23:32;17.10;92.30
12223;DHT22;6174;49.058;8.524;2022-08-21T03:25:59;17.10;92.10
12223;DHT22;6174;49.058;8.524;2022-08-21T03:28:26;17.00;92.30
12223;DHT22;6174;49.058;8.524;2022-08-21T03:30:53;17.00;92.30
12223;DHT22;6174;49.058;8.524;2022-08-21T03:33:20;17.00;92.40
12223;DHT22;6174;49.058;8.524;2022-08-21T03:35:58;17.00;92.50
12223;DHT22;6174;49.058;8.524;2022-08-21T03:38:27;16.90;92.20
12223;DHT22;6174;49.058;8.524;2022-08-21T03:40:56;16.80;92.60
12223;DHT22;6174;49.058;8.524;2022-08-21T03:43:23;16.80;92.80
12223;DHT22;6174;49.058;8.524;2022-08-21T03:45:50;16.80;92.50
12223;DHT22;6174;49.058;8.524;2022-08-21T03:48:17;16.70;92.90
12223;DHT22;6174;49.058;8.524;2022-08-21T03:50:44;16.80;93.10
12223;DHT22;6174;49.058;8.524;2022-08-21T03:53:14;16.80;93.00
12223;DHT22;6174;49.058;8.524;2022-08-21T03:55:41;16.70;93.10
12223;DHT22;6174;49.058;8.524;2022-08-21T03:58:09;16.80;93.20
12223;DHT22;6174;49.058;8.524;2022-08-21T04:00:36;16.70;92.90
12223;DHT22;6174;49.058;8.524;2022-08-21T04:03:03;16.60;92.80
12223;DHT22;6174;49.058;8.524;2022-08-21T04:05:30;16.60;93.00
12223;DHT22;6174;49.058;8.524;2022-08-21T04:07:58;16.60;92.90
12223;DHT22;6174;49.058;8.524;2022-08-21T04:10:26;16.60;92.90
12223;DHT22;6174;49.058;8.524;2022-08-21T04:12:53;16.60;93.50
12223;DHT22;6174;49.058;8.524;2022-08-21T04:15:23;16.60;93.30
12223;DHT22;6174;49.058;8.524;2022-08-21T04:17:51;16.70;93.50
12223;DHT22;6174;49.058;8.524;2022-08-21T04:20:18;16.50;93.50
12223;DHT22;6174;49.058;8.524;2022-08-21T04:22:47;16.50;93.80
12223;DHT22;6174;49.058;8.524;2022-08-21T04:25:15;16.60;93.80
12223;DHT22;6174;49.058;8.524;2022-08-21T04:27:43;16.50;93.60
12223;DHT22;6174;49.058;8.524;2022-08-21T04:30:13;16.50;93.70
12223;DHT22;6174;49.058;8.524;2022-08-21T04:32:44;16.40;93.40
12223;DHT22;6174;49.058;8.524;2022-08-21T04:35:11;16.40;93.80
12223;DHT22;6174;49.058;8.524;2022-08-21T04:37:38;16.40;93.80
12223;DHT22;6174;49.058;8.524;2022-08-21T04:40:07;16.40;94.30
12223;DHT22;6174;49.058;8.524;2022-08-21T04:42:41;16.50;94.20
12223;DHT22;6174;49.058;8.524;2022-08-21T04:45:13;16.60;94.30
12223;DHT22;6174;49.058;8.524;2022-08-21T04:47:40;16.50;94.10
12223;DHT22;6174;49.058;8.524;2022-08-21T04:50:09;16.50;94.00
12223;DHT22;6174;49.058;8.524;2022-08-21T04:52:36;16.50;94.00
12223;DHT22;6174;49.058;8.524;2022-08-21T04:55:03;16.40;94.50
12223;DHT22;6174;49.058;8.524;2022-08-21T04:57:30;16.30;94.60
12223;DHT22;6174;49.058;8.524;2022-08-21T04:59:57;16.30;94.90
12223;DHT22;6174;49.058;8.524;2022-08-21T05:02:24;16.20;95.00
12223;DHT22;6174;49.058;8.524;2022-08-21T05:04:53;16.30;94.80
12223;DHT22;6174;49.058;8.524;2022-08-21T05:07:26;16.30;94.80
12223;DHT22;6174;49.058;8.524;2022-08-21T05:09:54;16.20;94.80
12223;DHT22;6174;49.058;8.524;2022-08-21T05:12:21;16.30;94.90
12223;DHT22;6174;49.058;8.524;2022-08-21T05:14:48;16.30;95.00
12223;DHT22;6174;49.058;8.524;2022-08-21T05:17:15;16.20;94.90
12223;DHT22;6174;49.058;8.524;2022-08-21T05:19:42;16.20;95.10
12223;DHT22;6174;49.058;8.524;2022-08-21T05:22:09;16.10;95.20
12223;DHT22;6174;49.058;8.524;2022-08-21T05:24:37;16.10;95.80
12223;DHT22;6174;49.058;8.524;2022-08-21T05:27:04;16.20;95.90
12223;DHT22;6174;49.058;8.524;2022-08-21T05:29:32;16.30;95.90
12223;DHT22;6174;49.058;8.524;2022-08-21T05:32:00;16.30;95.60
12223;DHT22;6174;49.058;8.524;2022-08-21T05:34:26;16.30;95.80
12223;DHT22;6174;49.058;8.524;2022-08-21T05:36:53;16.30;95.70
12223;DHT22;6174;49.058;8.524;2022-08-21T05:39:20;16.50;95.80
12223;DHT22;6174;49.058;8.524;2022-08-21T05:41:48;16.50;95.90
12223;DHT22;6174;49.058;8.524;2022-08-21T05:44:15;16.60;96.20
12223;DHT22;6174;49.058;8.524;2022-08-21T05:46:42;16.70;96.40
12223;DHT22;6174;49.058;8.524;2022-08-21T05:49:08;16.80;96.00
12223;DHT22;6174;49.058;8.524;2022-08-21T05:51:35;17.00;95.30
12223;DHT22;6174;49.058;8.524;2022-08-21T05:54:02;17.10;95.40
12223;DHT22;6174;49.058;8.524;2022-08-21T05:56:29;17.20;95.20
12223;DHT22;6174;49.058;8.524;2022-08-21T05:58:57;17.30;95.00
12223;DHT22;6174;49.058;8.524;2022-08-21T06:01:24;17.40;94.60
12223;DHT22;6174;49.058;8.524;2022-08-21T06:03:52;17.50;93.60
12223;DHT22;6174;49.058;8.524;2022-08-21T06:06:18;17.60;93.10
12223;DHT22;6174;49.058;8.524;2022-08-21T06:08:45;17.70;92.70
12223;DHT22;6174;49.058;8.524;2022-08-21T06:11:12;17.80;92.60
12223;DHT22;6174;49.058;8.524;2022-08-21T06:13:39;17.80;92.30
12223;DHT22;6174;49.058;8.524;2022-08-21T06:16:10;18.00;92.40
12223;DHT22;6174;49.058;8.524;2022-08-21T06:18:39;18.00;92.00
12223;DHT22;6174;49.058;8.524;2022-08-21T06:21:06;18.10;92.00
12223;DHT22;6174;49.058;8.524;2022-08-21T06:23:34;18.20;91.70
12223;DHT22;6174;49.058;8.524;2022-08-21T06:26:01;18.40;91.50
12223;DHT22;6174;49.058;8.524;2022-08-21T06:28:29;18.50;91.40
12223;DHT22;6174;49.058;8.524;2022-08-21T06:30:56;18.90;90.80
12223;DHT22;6174;49.058;8.524;2022-08-21T06:33:25;19.00;90.00
12223;DHT22;6174;49.058;8.524;2022-08-21T06:35:51;19.20;89.60
12223;DHT22;6174;49.058;8.524;2022-08-21T06:38:18;19.20;89.30
12223;DHT22;6174;49.058;8.524;2022-08-21T06:40:45;19.20;89.40
12223;DHT22;6174;49.058;8.524;2022-08-21T06:43:14;19.30;87.40
12223;DHT22;6174;49.058;8.524;2022-08-21T06:45:41;19.30;87.70
12223;DHT22;6174;49.058;8.524;2022-08-21T06:48:08;19.50;86.40
12223;DHT22;6174;49.058;8.524;2022-08-21T06:50:37;19.50;86.20
12223;DHT22;6174;49.058;8.524;2022-08-21T06:53:06;19.70;85.60
12223;DHT22;6174;49.058;8.524;2022-08-21T06:55:33;19.90;85.40
12223;DHT22;6174;49.058;8.524;2022-08-21T06:58:00;20.10;83.70
12223;DHT22;6174;49.058;8.524;2022-08-21T07:00:27;20.20;83.70
12223;DHT22;6174;49.058;8.524;2022-08-21T07:02:54;20.30;82.80
12223;DHT22;6174;49.058;8.524;2022-08-21T07:05:21;20.40;82.60
12223;DHT22;6174;49.058;8.524;2022-08-21T07:07:49;20.50;82.00
12223;DHT22;6174;49.058;8.524;2022-08-21T07:10:16;20.70;81.00
12223;DHT22;6174;49.058;8.524;2022-08-21T07:12:43;20.90;80.30
12223;DHT22;6174;49.058;8.524;2022-08-21T07:15:10;21.20;79.10
12223;DHT22;6174;49.058;8.524;2022-08-21T07:17:37;21.50;77.50
12223;DHT22;6174;49.058;8.524;2022-08-21T07:20:05;22.00;76.40
12223;DHT22;6174;49.058;8.524;2022-08-21T07:22:33;22.50;74.40
12223;DHT22;6174;49.058;8.524;2022-08-21T07:25:03;23.00;72.60
12223;DHT22;6174;49.058;8.524;2022-08-21T07:27:30;23.50;69.50
12223;DHT22;6174;49.058;8.524;2022-08-21T07:29:57;23.80;68.50
12223;DHT22;6174;49.058;8.524;2022-08-21T07:32:24;23.90;66.90
12223;DHT22;6174;49.058;8.524;2022-08-21T07:34:51;24.20;66.30
12223;DHT22;6174;49.058;8.524;2022-08-21T07:37:18;24.30;65.20
12223;DHT22;6174;49.058;8.524;2022-08-21T07:39:45;24.30;64.50
12223;DHT22;6174;49.058;8.524;2022-08-21T07:42:15;24.10;65.00
12223;DHT22;6174;49.058;8.524;2022-08-21T07:44:42;23.90;66.00
12223;DHT22;6174;49.058;8.524;2022-08-21T07:47:09;23.60;67.20
12223;DHT22;6174;49.058;8.524;2022-08-21T07:49:36;23.20;68.10
12223;DHT22;6174;49.058;8.524;2022-08-21T07:52:03;23.10;69.00
12223;DHT22;6174;49.058;8.524;2022-08-21T07:54:30;22.90;69.90
12223;DHT22;6174;49.058;8.524;2022-08-21T07:56:57;22.60;71.10
12223;DHT22;6174;49.058;8.524;2022-08-21T07:59:25;22.50;71.40
12223;DHT22;6174;49.058;8.524;2022-08-21T08:01:52;22.30;71.70
12223;DHT22;6174;49.058;8.524;2022-08-21T08:04:19;22.10;72.80
12223;DHT22;6174;49.058;8.524;2022-08-21T08:06:45;22.00;73.30
12223;DHT22;6174;49.058;8.524;2022-08-21T08:09:12;21.80;74.10
12223;DHT22;6174;49.058;8.524;2022-08-21T08:11:41;21.80;74.40
12223;DHT22;6174;49.058;8.524;2022-08-21T08:14:09;21.80;74.20
12223;DHT22;6174;49.058;8.524;2022-08-21T08:16:38;21.60;74.80
12223;DHT22;6174;49.058;8.524;2022-08-21T08:19:04;21.60;75.60
12223;DHT22;6174;49.058;8.524;2022-08-21T08:21:31;21.70;75.30
12223;DHT22;6174;49.058;8.524;2022-08-21T08:23:59;21.90;74.50
12223;DHT22;6174;49.058;8.524;2022-08-21T08:26:26;21.90;74.10
12223;DHT22;6174;49.058;8.524;2022-08-21T08:28:52;21.90;74.30
12223;DHT22;6174;49.058;8.524;2022-08-21T08:31:19;22.00;73.30
12223;DHT22;6174;49.058;8.524;2022-08-21T08:33:48;22.10;72.40
12223;DHT22;6174;49.058;8.524;2022-08-21T08:36:16;22.10;71.70
12223;DHT22;6174;49.058;8.524;2022-08-21T08:38:44;22.10;72.30
12223;DHT22;6174;49.058;8.524;2022-08-21T08:41:14;22.00;73.70
12223;DHT22;6174;49.058;8.524;2022-08-21T08:43:46;22.00;72.70
12223;DHT22;6174;49.058;8.524;2022-08-21T08:46:18;22.20;72.40
12223;DHT22;6174;49.058;8.524;2022-08-21T08:48:51;22.20;71.90
12223;DHT22;6174;49.058;8.524;2022-08-21T08:51:23;22.30;69.90
12223;DHT22;6174;49.058;8.524;2022-08-21T08:53:54;22.40;70.10
12223;DHT22;6174;49.058;8.524;2022-08-21T08:56:27;22.40;70.70
12223;DHT22;6174;49.058;8.524;2022-08-21T08:58:57;22.50;71.40
12223;DHT22;6174;49.058;8.524;2022-08-21T09:01:25;22.50;70.30
12223;DHT22;6174;49.058;8.524;2022-08-21T09:03:54;22.60;69.90
12223;DHT22;6174;49.058;8.524;2022-08-21T09:06:32;22.60;68.80
12223;DHT22;6174;49.058;8.524;2022-08-21T09:09:11;22.70;67.70
12223;DHT22;6174;49.058;8.524;2022-08-21T09:12:06;22.70;68.00
12223;DHT22;6174;49.058;8.524;2022-08-21T09:14:53;22.80;68.90
12223;DHT22;6174;49.058;8.524;2022-08-21T09:17:34;22.80;69.70
12223;DHT22;6174;49.058;8.524;2022-08-21T09:20:15;23.00;69.60
12223;DHT22;6174;49.058;8.524;2022-08-21T09:22:50;23.10;68.70
12223;DHT22;6174;49.058;8.524;2022-08-21T09:25:30;23.20;66.40
12223;DHT22;6174;49.058;8.524;2022-08-21T09:35:00;23.50;66.10
12223;DHT22;6174;49.058;8.524;2022-08-21T09:41:14;23.80;64.30
12223;DHT22;6174;49.058;8.524;2022-08-21T09:43:52;23.90;62.90
12223;DHT22;6174;49.058;8.524;2022-08-21T09:46:22;24.00;62.90
12223;DHT22;6174;49.058;8.524;2022-08-21T09:48:51;24.10;60.40
12223;DHT22;6174;49.058;8.524;2022-08-21T09:51:21;24.10;60.20
12223;DHT22;6174;49.058;8.524;2022-08-21T09:53:52;24.20;61.40
12223;DHT22;6174;49.058;8.524;2022-08-21T09:56:26;24.30;61.00
12223;DHT22;6174;49.058;8.524;2022-08-21T09:59:17;24.30;61.10
12223;DHT22;6174;49.058;8.524;2022-08-21T10:01:47;24.30;59.60
12223;DHT22;6174;49.058;8.524;2022-08-21T10:04:14;24.40;60.00
12223;DHT22;6174;49.058;8.524;2022-08-21T10:06:41;24.40;60.20
12223;DHT22;6174;49.058;8.524;2022-08-21T10:09:12;24.50;59.70
12223;DHT22;6174;49.058;8.524;2022-08-21T10:11:40;24.60;60.00
12223;DHT22;6174;49.058;8.524;2022-08-21T10:14:16;24.60;59.00
12223;DHT22;6174;49.058;8.524;2022-08-21T10:16:52;24.70;58.50
12223;DHT22;6174;49.058;8.524;2022-08-21T10:19:28;24.70;58.10
12223;DHT22;6174;49.058;8.524;2022-08-21T10:22:15;24.70;57.80
12223;DHT22;6174;49.058;8.524;2022-08-21T10:24:58;24.90;57.40
12223;DHT22;6174;49.058;8.524;2022-08-21T10:27:36;24.90;57.80
12223;DHT22;6174;49.058;8.524;2022-08-21T10:30:09;25.00;58.60
12223;DHT22;6174;49.058;8.524;2022-08-21T10:32:58;25.20;57.70
12223;DHT22;6174;49.058;8.524;2022-08-21T10:35:29;25.20;56.30
12223;DHT22;6174;49.058;8.524;2022-08-21T10:38:36;25.20;58.30
12223;DHT22;6174;49.058;8.524;2022-08-21T10:41:13;25.30;57.60
12223;DHT22;6174;49.058;8.524;2022-08-21T10:43:50;25.40;57.40
12223;DHT22;6174;49.058;8.524;2022-08-21T10:46:24;25.60;55.60
12223;DHT22;6174;49.058;8.524;2022-08-21T10:48:58;25.60;55.30
12223;DHT22;6174;49.058;8.524;2022-08-21T10:51:31;25.60;56.70
12223;DHT22;6174;49.058;8.524;2022-08-21T10:54:05;25.60;57.90
12223;DHT22;6174;49.058;8.524;2022-08-21T10:56:37;25.70;56.20
12223;DHT22;6174;49.058;8.524;2022-08-21T10:59:20;25.70;55.30
12223;DHT22;6174;49.058;8.524;2022-08-21T11:01:54;25.70;56.60
12223;DHT22;6174;49.058;8.524;2022-08-21T11:04:28;25.80;56.70
12223;DHT22;6174;49.058;8.524;2022-08-21T11:07:00;25.80;56.40
12223;DHT22;6174;49.058;8.524;2022-08-21T11:09:28;26.00;56.30
12223;DHT22;6174;49.058;8.524;2022-08-21T11:12:00;26.10;56.10
12223;DHT22;6174;49.058;8.524;2022-08-21T11:14:34;26.10;55.70
12223;DHT22;6174;49.058;8.524;2022-08-21T11:17:08;26.30;55.50
12223;DHT22;6174;49.058;8.524;2022-08-21T11:19:40;26.40;55.30
12223;DHT22;6174;49.058;8.524;2022-08-21T11:22:15;26.50;56.00
12223;DHT22;6174;49.058;8.524;2022-08-21T11:24:46;26.60;55.70
12223;DHT22;6174;49.058;8.524;2022-08-21T11:27:20;26.60;55.70
12223;DHT22;6174;49.058;8.524;2022-08-21T11:29:49;26.70;55.50
12223;DHT22;6174;49.058;8.524;2022-08-21T11:32:30;26.60;54.70
12223;DHT22;6174;49.058;8.524;2022-08-21T11:35:03;26.50;54.80
12223;DHT22;6174;49.058;8.524;2022-08-21T11:37:48;26.20;54.50
12223;DHT22;6174;49.058;8.524;2022-08-21T11:40:37;26.00;56.30
12223;DHT22;6174;49.058;8.524;2022-08-21T11:43:12;26.10;56.30
12223;DHT22;6174;49.058;8.524;2022-08-21T11:45:50;26.10;55.90
12223;DHT22;6174;49.058;8.524;2022-08-21T11:48:29;26.10;56.50
12223;DHT22;6174;49.058;8.524;2022-08-21T11:50:58;26.20;55.80
12223;DHT22;6174;49.058;8.524;2022-08-21T11:53:30;26.30;55.60
12223;DHT22;6174;49.058;8.524;2022-08-21T11:56:03;26.30;54.00
12223;DHT22;6174;49.058;8.524;2022-08-21T11:58:37;26.40;53.00
12223;DHT22;6174;49.058;8.524;2022-08-21T12:01:08;26.60;52.50
12223;DHT22;6174;49.058;8.524;2022-08-21T12:03:37;26.60;53.10
12223;DHT22;6174;49.058;8.524;2022-08-21T12:06:09;26.60;53.30
12223;DHT22;6174;49.058;8.524;2022-08-21T12:08:37;26.60;51.60
12223;DHT22;6174;49.058;8.524;2022-08-21T12:11:07;26.80;52.40
12223;DHT22;6174;49.058;8.524;2022-08-21T12:13:37;26.90;53.10
12223;DHT22;6174;49.058;8.524;2022-08-21T12:16:06;27.00;53.50
12223;DHT22;6174;49.058;8.524;2022-08-21T12:18:34;27.00;53.10
12223;DHT22;6174;49.058;8.524;2022-08-21T12:21:16;27.00;53.40
12223;DHT22;6174;49.058;8.524;2022-08-21T12:23:47;27.10;52.60
12223;DHT22;6174;49.058;8.524;2022-08-21T12:26:23;27.10;53.40
12223;DHT22;6174;49.058;8.524;2022-08-21T12:29:07;27.10;53.30
12223;DHT22;6174;49.058;8.524;2022-08-21T12:31:48;27.20;52.80
12223;DHT22;6174;49.058;8.524;2022-08-21T12:34:16;27.20;53.00
12223;DHT22;6174;49.058;8.524;2022-08-21T12:36:46;27.20;52.50
12223;DHT22;6174;49.058;8.524;2022-08-21T12:39:19;27.20;52.30
12223;DHT22;6174;49.058;8.524;2022-08-21T12:41:51;27.20;51.30
12223;DHT22;6174;49.058;8.524;2022-08-21T12:44:26;27.10;51.20
12223;DHT22;6174;49.058;8.524;2022-08-21T12:46:57;27.20;51.00
12223;DHT22;6174;49.058;8.524;2022-08-21T12:49:27;27.20;52.50
12223;DHT22;6174;49.058;8.524;2022-08-21T12:52:00;27.40;51.90
12223;DHT22;6174;49.058;8.524;2022-08-21T12:54:30;27.70;50.80
12223;DHT22;6174;49.058;8.524;2022-08-21T12:57:02;27.80;50.50
12223;DHT22;6174;49.058;8.524;2022-08-21T12:59:31;27.70;49.70
12223;DHT22;6174;49.058;8.524;2022-08-21T13:02:00;27.60;49.50
12223;DHT22;6174;49.058;8.524;2022-08-21T13:04:35;27.60;49.40
12223;DHT22;6174;49.058;8.524;2022-08-21T13:07:06;27.60;49.90
12223;DHT22;6174;49.058;8.524;2022-08-21T13:09:38;27.60;50.50
12223;DHT22;6174;49.058;8.524;2022-08-21T13:12:08;27.70;47.90
12223;DHT22;6174;49.058;8.524;2022-08-21T13:14:39;27.50;49.00
12223;DHT22;6174;49.058;8.524;2022-08-21T13:17:07;27.50;49.60
12223;DHT22;6174;49.058;8.524;2022-08-21T13:19:34;27.50;49.60
12223;DHT22;6174;49.058;8.524;2022-08-21T13:22:01;27.50;50.50
12223;DHT22;6174;49.058;8.524;2022-08-21T13:24:30;27.50;49.50
12223;DHT22;6174;49.058;8.524;2022-08-21T13:26:58;27.60;49.40
12223;DHT22;6174;49.058;8.524;2022-08-21T13:29:29;27.60;49.10
12223;DHT22;6174;49.058;8.524;2022-08-21T13:31:59;27.60;48.70
12223;DHT22;6174;49.058;8.524;2022-08-21T13:34:30;27.60;49.50
12223;DHT22;6174;49.058;8.524;2022-08-21T13:36:59;27.60;49.30
12223;DHT22;6174;49.058;8.524;2022-08-21T13:39:27;27.60;48.50
12223;DHT22;6174;49.058;8.524;2022-08-21T13:41:55;27.70;49.50
12223;DHT22;6174;49.058;8.524;2022-08-21T13:44:31;27.80;48.70
12223;DHT22;6174;49.058;8.524;2022-08-21T13:47:02;27.90;47.00
12223;DHT22;6174;49.058;8.524;2022-08-21T13:49:33;27.90;47.90
12223;DHT22;6174;49.058;8.524;2022-08-21T13:52:01;28.00;48.60
12223;DHT22;6174;49.058;8.524;2022-08-21T13:54:34;27.90;48.10
12223;DHT22;6174;49.058;8.524;2022-08-21T13:57:01;27.90;47.80
12223;DHT22;6174;49.058;8.524;2022-08-21T13:59:31;28.00;47.80
12223;DHT22;6174;49.058;8.524;2022-08-21T14:02:02;28.00;48.40
12223;DHT22;6174;49.058;8.524;2022-08-21T14:04:36;28.10;47.30
12223;DHT22;6174;49.058;8.524;2022-08-21T14:07:15;28.10;46.80
12223;DHT22;6174;49.058;8.524;2022-08-21T14:09:45;28.10;45.50
12223;DHT22;6174;49.058;8.524;2022-08-21T14:12:14;28.10;46.90
12223;DHT22;6174;49.058;8.524;2022-08-21T14:14:42;28.00;46.10
12223;DHT22;6174;49.058;8.524;2022-08-21T14:17:13;28.10;46.70
12223;DHT22;6174;49.058;8.524;2022-08-21T14:19:51;28.10;45.60
12223;DHT22;6174;49.058;8.524;2022-08-21T14:22:27;28.00;46.10
12223;DHT22;6174;49.058;8.524;2022-08-21T14:24:59;28.00;45.60
12223;DHT22;6174;49.058;8.524;2022-08-21T14:27:29;28.10;46.00
12223;DHT22;6174;49.058;8.524;2022-08-21T14:29:59;28.10;44.30
12223;DHT22;6174;49.058;8.524;2022-08-21T14:32:35;28.10;44.40
12223;DHT22;6174;49.058;8.524;2022-08-21T14:35:03;27.90;44.50
12223;DHT22;6174;49.058;8.524;2022-08-21T14:37:30;27.80;45.30
12223;DHT22;6174;49.058;8.524;2022-08-21T14:39:57;27.60;45.70
12223;DHT22;6174;49.058;8.524;2022-08-21T14:42:24;27.60;46.90
12223;DHT22;6174;49.058;8.524;2022-08-21T14:44:51;27.50;45.50
12223;DHT22;6174;49.058;8.524;2022-08-21T14:47:20;27.50;45.70
12223;DHT22;6174;49.058;8.524;2022-08-21T14:49:48;27.60;45.10
12223;DHT22;6174;49.058;8.524;2022-08-21T14:52:15;27.60;45.90
12223;DHT22;6174;49.058;8.524;2022-08-21T14:54:43;27.60;46.10
12223;DHT22;6174;49.058;8.524;2022-08-21T14:57:11;27.60;46.50
12223;DHT22;6174;49.058;8.524;2022-08-21T14:59:39;27.50;46.00
12223;DHT22;6174;49.058;8.524;2022-08-21T15:02:07;27.40;46.10
12223;DHT22;6174;49.058;8.524;2022-08-21T15:04:34;27.30;46.90
12223;DHT22;6174;49.058;8.524;2022-08-21T15:07:03;27.30;46.20
12223;DHT22;6174;49.058;8.524;2022-08-21T15:09:30;27.20;46.50
12223;DHT22;6174;49.058;8.524;2022-08-21T15:11:58;27.20;46.80
12223;DHT22;6174;49.058;8.524;2022-08-21T15:14:29;27.20;46.90
12223;DHT22;6174;49.058;8.524;2022-08-21T15:16:57;27.30;46.30
12223;DHT22;6174;49.058;8.524;2022-08-21T15:19:24;27.30;46.10
12223;DHT22;6174;49.058;8.524;2022-08-21T15:21:51;27.30;45.70
12223;DHT22;6174;49.058;8.524;2022-08-21T15:24:19;27.30;45.60
12223;DHT22;6174;49.058;8.524;2022-08-21T15:26:47;27.20;46.30
12223;DHT22;6174;49.058;8.524;2022-08-21T15:29:14;27.30;46.70
12223;DHT22;6174;49.058;8.524;2022-08-21T15:31:51;27.30;46.60
12223;DHT22;6174;49.058;8.524;2022-08-21T15:34:19;27.20;45.80
12223;DHT22;6174;49.058;8.524;2022-08-21T15:36:46;27.10;46.20
12223;DHT22;6174;49.058;8.524;2022-08-21T15:39:13;27.10;47.00
12223;DHT22;6174;49.058;8.524;2022-08-21T15:41:42;27.00;47.00
12223;DHT22;6174;49.058;8.524;2022-08-21T15:44:09;27.00;47.30
12223;DHT22;6174;49.058;8.524;2022-08-21T15:46:38;26.90;47.20
12223;DHT22;6174;49.058;8.524;2022-08-21T15:49:05;26.90;47.00
12223;DHT22;6174;49.058;8.524;2022-08-21T15:51:32;26.80;47.00
12223;DHT22;6174;49.058;8.524;2022-08-21T15:53:59;27.00;45.20
12223;DHT22;6174;49.058;8.524;2022-08-21T15:56:28;27.10;45.50
12223;DHT22;6174;49.058;8.524;2022-08-21T15:59:02;27.20;45.00
12223;DHT22;6174;49.058;8.524;2022-08-21T16:01:30;27.40;45.20
12223;DHT22;6174;49.058;8.524;2022-08-21T16:03:57;27.40;45.20
12223;DHT22;6174;49.058;8.524;2022-08-21T16:06:24;27.40;44.80
12223;DHT22;6174;49.058;8.524;2022-08-21T16:08:51;27.40;44.30
12223;DHT22;6174;49.058;8.524;2022-08-21T16:11:18;27.40;44.90